createdAt,value
2023-02-11T00:01:41.544Z,12.80
2023-02-11T00:04:46.231Z,14.98
2023-02-11T00:07:50.723Z,14.48
2023-02-11T00:10:57.773Z,13.13
2023-02-11T00:14:06.026Z,11.10
2023-02-11T00:17:10.479Z,10.63
2023-02-11T00:20:15.620Z,11.32
2023-02-11T00:23:20.049Z,8.98
2023-02-11T00:26:32.382Z,10.13
2023-02-11T00:29:40.201Z,9.57
2023-02-11T00:32:44.974Z,9.52
2023-02-11T00:35:50.090Z,8.55
2023-02-11T00:38:57.569Z,9.93
2023-02-11T00:42:02.234Z,8.95
2023-02-11T00:45:06.871Z,8.38
2023-02-11T00:48:11.634Z,8.65
2023-02-11T00:51:16.153Z,7.60
2023-02-11T00:54:20.780Z,7.05
2023-02-11T00:57:25.214Z,7.03
2023-02-11T01:00:30.010Z,7.00
2023-02-11T01:03:35.243Z,6.90
2023-02-11T01:06:39.613Z,6.72
2023-02-11T01:09:44.144Z,6.50
2023-02-11T01:12:48.647Z,7.65
2023-02-11T01:15:53.608Z,6.28
2023-02-11T01:18:58.983Z,7.95
2023-02-11T01:22:03.757Z,7.90
2023-02-11T01:25:08.832Z,7.85
2023-02-11T01:28:28.759Z,7.13
2023-02-11T01:31:33.736Z,6.82
2023-02-11T01:34:38.459Z,7.90
2023-02-11T01:37:43.316Z,7.28
2023-02-11T01:41:00.671Z,7.55
2023-02-11T01:44:31.315Z,7.72
2023-02-11T01:47:36.098Z,6.50
2023-02-11T01:50:42.479Z,6.28
2023-02-11T01:54:06.700Z,6.75
2023-02-11T01:57:22.173Z,6.22
2023-02-11T02:00:36.252Z,5.70
2023-02-11T02:03:44.864Z,6.53
2023-02-11T02:07:02.559Z,5.97
2023-02-11T02:10:15.354Z,6.00
2023-02-11T02:13:20.376Z,6.55
2023-02-11T02:16:36.508Z,5.85
2023-02-11T02:20:16.239Z,5.60
2023-02-11T02:23:49.646Z,6.03
2023-02-11T02:27:47.100Z,6.20
2023-02-11T02:31:08.558Z,5.97
2023-02-11T02:34:29.572Z,5.60
2023-02-11T02:37:59.240Z,6.18
2023-02-11T02:41:08.554Z,6.55
2023-02-11T02:44:12.873Z,6.75
2023-02-11T02:47:17.566Z,6.43
2023-02-11T02:50:30.369Z,5.93
2023-02-11T02:54:17.551Z,6.82
2023-02-11T02:58:02.673Z,6.43
2023-02-11T03:01:50.060Z,5.40
2023-02-11T03:05:09.819Z,6.20
2023-02-11T03:08:33.820Z,5.53
2023-02-11T03:11:39.192Z,6.80
2023-02-11T03:14:45.326Z,6.13
2023-02-11T03:17:54.071Z,6.32
2023-02-11T03:21:01.021Z,7.28
2023-02-11T03:24:21.047Z,6.60
2023-02-11T03:27:28.080Z,6.35
2023-02-11T03:30:44.055Z,5.75
2023-02-11T03:34:15.762Z,6.50
2023-02-11T03:37:25.940Z,7.07
2023-02-11T03:40:36.668Z,7.32
2023-02-11T03:43:46.399Z,8.38
2023-02-11T03:46:59.123Z,7.55
2023-02-11T03:50:14.672Z,7.20
2023-02-11T03:53:23.118Z,7.43
2023-02-11T03:56:33.190Z,7.30
2023-02-11T03:59:54.351Z,7.85
2023-02-11T04:02:59.244Z,9.65
2023-02-11T04:06:04.321Z,8.45
2023-02-11T04:09:09.379Z,7.05
2023-02-11T04:12:14.271Z,8.10
2023-02-11T04:15:19.470Z,8.25
2023-02-11T04:18:24.536Z,8.80
2023-02-11T04:21:29.250Z,8.35
2023-02-11T04:24:35.175Z,8.82
2023-02-11T04:27:39.833Z,8.20
2023-02-11T04:30:44.210Z,9.48
2023-02-11T04:33:48.913Z,10.07
2023-02-11T04:36:53.556Z,9.45
2023-02-11T04:39:58.210Z,8.13
2023-02-11T04:43:03.011Z,9.32
2023-02-11T04:46:07.672Z,10.27
2023-02-11T04:49:15.366Z,10.93
2023-02-11T04:52:19.762Z,9.88
2023-02-11T04:55:24.847Z,9.70
2023-02-11T04:58:29.179Z,8.95
2023-02-11T05:01:34.164Z,8.55
2023-02-11T05:04:38.780Z,9.70
2023-02-11T05:07:43.573Z,12.18
2023-02-11T05:10:48.345Z,11.60
2023-02-11T05:13:53.362Z,10.98
2023-02-11T05:16:57.913Z,10.25
2023-02-11T05:20:03.024Z,11.45
2023-02-11T05:23:08.160Z,11.18
2023-02-11T05:26:13.386Z,10.60
2023-02-11T05:29:17.665Z,9.77
2023-02-11T05:32:22.223Z,13.32
2023-02-11T05:35:26.725Z,13.05
2023-02-11T05:38:31.829Z,12.93
2023-02-11T05:41:38.160Z,14.50
2023-02-11T05:44:42.795Z,10.98
2023-02-11T05:47:47.511Z,11.20
2023-02-11T05:50:52.504Z,12.05
2023-02-11T05:53:57.160Z,12.30
2023-02-11T05:57:03.279Z,12.75
2023-02-11T06:00:10.246Z,12.68
2023-02-11T06:03:17.788Z,11.65
2023-02-11T06:06:22.635Z,12.88
2023-02-11T06:09:27.728Z,11.63
2023-02-11T06:12:32.411Z,11.20
2023-02-11T06:15:37.058Z,10.82
2023-02-11T06:18:41.781Z,12.73
2023-02-11T06:21:46.367Z,11.30
2023-02-11T06:25:01.397Z,11.65
2023-02-11T06:28:06.775Z,11.70
2023-02-11T06:31:12.236Z,11.98
2023-02-11T06:34:16.851Z,12.63
2023-02-11T06:37:21.774Z,13.68
2023-02-11T06:40:26.483Z,13.70
2023-02-11T06:43:31.206Z,13.93
2023-02-11T06:46:35.541Z,14.68
2023-02-11T06:49:40.047Z,13.80
2023-02-11T06:52:44.728Z,14.65
2023-02-11T06:55:49.784Z,14.85
2023-02-11T06:58:56.160Z,14.70
2023-02-11T07:02:00.724Z,13.77
2023-02-11T07:05:07.292Z,14.65
2023-02-11T07:08:12.169Z,14.05
2023-02-11T07:11:20.629Z,14.02
2023-02-11T07:14:25.623Z,13.93
2023-02-11T07:17:29.995Z,13.30
2023-02-11T07:20:34.629Z,12.70
2023-02-11T07:23:40.884Z,14.18
2023-02-11T07:26:45.597Z,14.38
2023-02-11T07:29:50.152Z,13.73
2023-02-11T07:32:56.051Z,15.73
2023-02-11T07:36:01.587Z,15.77
2023-02-11T07:39:06.231Z,15.60
2023-02-11T07:42:11.267Z,14.20
2023-02-11T07:45:16.333Z,13.50
2023-02-11T07:48:20.719Z,13.23
2023-02-11T07:51:30.973Z,15.00
2023-02-11T07:54:36.111Z,14.88
2023-02-11T07:57:41.319Z,15.75
2023-02-11T08:00:46.055Z,15.50
2023-02-11T08:03:51.690Z,18.40
2023-02-11T08:06:59.087Z,19.08
2023-02-11T08:10:04.759Z,17.60
2023-02-11T08:13:09.344Z,17.98
2023-02-11T08:16:30.519Z,17.65
2023-02-11T08:19:35.428Z,15.38
2023-02-11T08:22:39.989Z,18.67
2023-02-11T08:25:44.944Z,18.70
2023-02-11T08:28:53.939Z,21.10
2023-02-11T08:31:58.541Z,22.80
2023-02-11T08:35:03.234Z,21.77
2023-02-11T08:38:08.968Z,20.73
2023-02-11T08:41:17.151Z,20.50
2023-02-11T08:44:23.450Z,19.98
2023-02-11T08:47:27.630Z,21.58
2023-02-11T08:50:32.344Z,19.95
2023-02-11T08:53:37.310Z,21.83
2023-02-11T08:56:41.996Z,23.45
2023-02-11T08:59:46.289Z,21.20
2023-02-11T09:02:50.746Z,20.63
2023-02-11T09:05:55.221Z,21.95
2023-02-11T09:08:59.999Z,23.38
2023-02-11T09:12:05.488Z,20.27
2023-02-11T09:15:10.345Z,23.77
2023-02-11T09:18:15.199Z,21.15
2023-02-11T09:21:20.226Z,22.83
2023-02-11T09:24:24.907Z,22.30
2023-02-11T09:27:29.239Z,20.23
2023-02-11T09:30:36.638Z,21.25
2023-02-11T09:33:47.864Z,22.75
2023-02-11T09:36:52.615Z,20.27
2023-02-11T09:39:57.262Z,19.15
2023-02-11T09:43:19.539Z,18.45
2023-02-11T09:46:26.763Z,18.75
2023-02-11T09:49:44.289Z,18.67
2023-02-11T09:53:01.714Z,17.58
2023-02-11T09:56:14.895Z,17.77
2023-02-11T09:59:20.236Z,19.88
2023-02-11T10:02:49.231Z,22.00
2023-02-11T10:06:13.138Z,20.13
2023-02-11T10:10:02.870Z,20.92
2023-02-11T10:13:43.009Z,19.70
2023-02-11T10:17:06.036Z,17.85
2023-02-11T10:20:51.827Z,18.42
2023-02-11T10:24:03.978Z,19.55
2023-02-11T10:27:24.381Z,15.65
2023-02-11T10:30:41.351Z,17.67
2023-02-11T10:34:09.807Z,19.58
2023-02-11T10:37:14.832Z,16.23
2023-02-11T10:40:26.922Z,21.52
2023-02-11T10:43:33.401Z,19.38
2023-02-11T10:46:40.241Z,19.88
2023-02-11T10:49:47.149Z,17.80
2023-02-11T10:52:52.028Z,17.67
2023-02-11T10:55:57.540Z,17.50
2023-02-11T10:59:15.265Z,18.52
2023-02-11T11:02:36.151Z,16.33
2023-02-11T11:06:06.343Z,18.02
2023-02-11T11:09:30.641Z,17.77
2023-02-11T11:12:48.987Z,19.85
2023-02-11T11:16:12.481Z,16.65
2023-02-11T11:19:25.874Z,18.70
2023-02-11T11:22:30.716Z,17.42
2023-02-11T11:25:41.558Z,15.70
2023-02-11T11:28:49.488Z,15.43
2023-02-11T11:32:15.283Z,15.35
2023-02-11T11:35:29.479Z,14.20
2023-02-11T11:38:38.226Z,16.58
2023-02-11T11:41:59.401Z,15.93
2023-02-11T11:45:17.585Z,20.48
2023-02-11T11:48:45.087Z,18.92
2023-02-11T11:52:09.747Z,20.30
2023-02-11T11:55:24.719Z,20.98
2023-02-11T11:58:31.582Z,19.25
2023-02-11T12:01:44.109Z,20.48
2023-02-11T12:05:32.619Z,18.70
2023-02-11T12:09:38.486Z,15.45
2023-02-11T12:12:54.296Z,15.05
2023-02-11T12:16:28.527Z,14.57
2023-02-11T12:23:16.034Z,11.77
2023-02-11T12:26:41.614Z,12.75
2023-02-11T12:30:17.329Z,11.10
2023-02-11T12:33:40.580Z,11.65
2023-02-11T12:37:02.867Z,12.32
2023-02-11T12:41:02.584Z,12.15
2023-02-11T12:44:16.761Z,11.20
2023-02-11T12:51:37.629Z,10.15
2023-02-11T12:55:25.602Z,10.35
2023-02-11T12:58:44.650Z,9.63
2023-02-11T13:01:51.930Z,9.80
2023-02-11T13:05:05.322Z,9.00
2023-02-11T13:08:33.854Z,9.27
2023-02-11T13:11:51.924Z,8.43
2023-02-11T13:15:04.844Z,10.57
2023-02-11T13:18:44.940Z,10.95
2023-02-11T13:21:59.260Z,9.25
2023-02-11T13:28:48.562Z,8.23
2023-02-11T13:32:12.595Z,7.20
2023-02-11T13:35:39.608Z,7.43
2023-02-11T13:39:01.295Z,7.90
2023-02-11T13:42:06.067Z,7.88
2023-02-11T13:45:25.072Z,7.20
2023-02-11T13:48:53.196Z,7.38
2023-02-11T13:52:00.600Z,6.80
2023-02-11T13:55:22.644Z,7.18
2023-02-11T13:58:27.401Z,8.00
2023-02-11T14:02:05.954Z,8.13
2023-02-11T14:05:43.700Z,6.93
2023-02-11T14:09:29.072Z,7.35
2023-02-11T14:12:35.068Z,7.15
2023-02-11T14:15:41.221Z,7.78
2023-02-11T14:18:49.289Z,6.68
2023-02-11T14:22:02.286Z,5.70
2023-02-11T14:25:25.664Z,6.35
2023-02-11T14:28:34.376Z,5.80
2023-02-11T14:32:05.914Z,5.45
2023-02-11T14:36:07.729Z,6.80
2023-02-11T14:39:49.524Z,7.60
2023-02-11T14:42:55.260Z,7.60
2023-02-11T14:46:02.879Z,8.02
2023-02-11T14:49:13.619Z,8.30
2023-02-11T14:52:31.925Z,7.40
2023-02-11T14:55:41.697Z,7.68
2023-02-11T14:58:48.921Z,7.72
2023-02-11T15:01:56.904Z,8.48
2023-02-11T15:05:27.233Z,8.40
2023-02-11T15:08:35.457Z,7.68
2023-02-11T15:11:43.046Z,8.07
2023-02-11T15:14:55.267Z,7.85
2023-02-11T15:18:03.599Z,8.10
2023-02-11T15:21:09.570Z,7.38
2023-02-11T15:24:31.683Z,7.47
2023-02-11T15:27:46.250Z,7.35
2023-02-11T15:31:16.041Z,6.43
2023-02-11T15:34:20.808Z,6.72
2023-02-11T15:37:32.349Z,7.18
2023-02-11T15:40:37.926Z,6.85
2023-02-11T15:43:48.860Z,7.07
2023-02-11T15:46:53.604Z,6.07
2023-02-11T15:49:58.596Z,5.95
2023-02-11T15:53:30.104Z,5.35
2023-02-11T15:56:47.421Z,5.85
2023-02-11T15:59:54.506Z,5.25
2023-02-11T16:02:59.370Z,4.97
2023-02-11T16:06:24.102Z,5.15
2023-02-11T16:09:36.863Z,4.78
2023-02-11T16:12:41.348Z,4.80
2023-02-11T16:16:02.649Z,4.60
2023-02-11T16:19:19.318Z,4.47
2023-02-11T16:22:30.344Z,5.05
2023-02-11T16:25:36.171Z,4.53
2023-02-11T16:28:41.471Z,4.03
2023-02-11T16:31:48.094Z,4.65
2023-02-11T16:34:55.272Z,4.82
2023-02-11T16:37:59.682Z,4.32
2023-02-11T16:41:04.232Z,4.75
2023-02-11T16:44:09.361Z,4.60
2023-02-11T16:47:25.156Z,4.55
2023-02-11T16:50:30.020Z,4.68
2023-02-11T16:53:34.778Z,5.05
2023-02-11T16:56:39.432Z,5.05
2023-02-11T16:59:45.209Z,5.13
2023-02-11T17:02:49.822Z,4.90
2023-02-11T17:05:55.987Z,4.35
2023-02-11T17:09:30.514Z,4.30
2023-02-11T17:12:35.783Z,4.30
2023-02-11T17:15:40.622Z,5.80
2023-02-11T17:18:45.717Z,5.75
2023-02-11T17:21:52.998Z,6.07
2023-02-11T17:24:58.348Z,5.18
2023-02-11T17:28:05.355Z,5.05
2023-02-11T17:31:10.382Z,4.45
2023-02-11T17:34:16.696Z,4.40
2023-02-11T17:37:21.786Z,4.25
2023-02-11T17:40:26.652Z,4.85
2023-02-11T17:43:32.223Z,4.85
2023-02-11T17:46:37.050Z,7.25
2023-02-11T17:49:42.983Z,9.95
2023-02-11T17:52:47.727Z,11.73
2023-02-11T17:55:54.393Z,10.75
2023-02-11T17:58:58.978Z,8.23
2023-02-11T18:02:05.160Z,6.72
2023-02-11T18:05:10.225Z,6.05
2023-02-11T18:08:15.549Z,5.60
2023-02-11T18:11:22.079Z,5.68
2023-02-11T18:14:27.431Z,5.57
2023-02-11T18:17:31.962Z,5.07
2023-02-11T18:20:36.703Z,5.07
2023-02-11T18:23:41.845Z,5.47
2023-02-11T18:26:46.474Z,5.35
2023-02-11T18:29:51.105Z,4.78
2023-02-11T18:32:56.804Z,5.50
2023-02-11T18:36:12.746Z,4.95
2023-02-11T18:39:19.374Z,5.05
2023-02-11T18:42:23.729Z,5.35
2023-02-11T18:45:31.282Z,5.00
2023-02-11T18:48:36.148Z,5.00
2023-02-11T18:51:40.755Z,4.70
2023-02-11T18:54:45.605Z,4.90
2023-02-11T18:57:51.266Z,5.40
2023-02-11T19:00:55.682Z,6.30
2023-02-11T19:04:04.464Z,7.15
2023-02-11T19:07:09.649Z,7.00
2023-02-11T19:10:14.074Z,6.63
2023-02-11T19:13:18.666Z,7.80
2023-02-11T19:16:23.510Z,11.48
2023-02-11T19:19:31.429Z,13.05
2023-02-11T19:22:35.864Z,14.32
2023-02-11T19:25:47.158Z,14.27
2023-02-11T19:28:51.860Z,12.60
2023-02-11T19:31:56.447Z,12.88
2023-02-11T19:35:01.137Z,12.18
2023-02-11T19:38:05.936Z,11.57
2023-02-11T19:41:12.144Z,9.90
2023-02-11T19:44:16.873Z,8.65
2023-02-11T19:47:27.573Z,9.38
2023-02-11T19:50:32.169Z,9.10
2023-02-11T19:53:38.329Z,8.88
2023-02-11T19:56:45.358Z,7.90
2023-02-11T19:59:50.049Z,7.72
2023-02-11T20:02:54.795Z,7.45
2023-02-11T20:06:28.102Z,7.20
2023-02-11T20:09:33.264Z,6.18
2023-02-11T20:12:38.214Z,7.05
2023-02-11T20:15:42.638Z,7.22
2023-02-11T20:18:49.349Z,7.05
2023-02-11T20:21:55.910Z,7.25
2023-02-11T20:25:00.639Z,6.93
2023-02-11T20:28:05.444Z,6.45
2023-02-11T20:31:11.755Z,6.60
2023-02-11T20:34:21.072Z,6.68
2023-02-11T20:37:26.070Z,6.68
2023-02-11T20:40:31.023Z,6.55
2023-02-11T20:43:38.057Z,6.90
2023-02-11T20:46:48.242Z,6.63
2023-02-11T20:49:55.739Z,6.50
2023-02-11T20:53:00.663Z,6.70
2023-02-11T20:56:08.355Z,7.00
2023-02-11T20:59:14.254Z,7.05
2023-02-11T21:02:18.844Z,6.80
2023-02-11T21:05:23.180Z,7.28
2023-02-11T21:08:28.108Z,7.72
2023-02-11T21:11:33.399Z,6.78
2023-02-11T21:14:38.367Z,6.90
2023-02-11T21:17:43.085Z,6.10
2023-02-11T21:20:47.474Z,6.43
2023-02-11T21:23:52.328Z,6.68
2023-02-11T21:26:57.132Z,6.13
2023-02-11T21:30:02.310Z,6.82
2023-02-11T21:33:08.630Z,7.22
2023-02-11T21:36:14.972Z,6.85
2023-02-11T21:39:20.419Z,6.03
2023-02-11T21:42:24.651Z,6.25
2023-02-11T21:45:31.413Z,6.22
2023-02-11T21:48:37.586Z,6.28
2023-02-11T21:51:42.506Z,6.57
2023-02-11T21:54:50.468Z,6.70
2023-02-11T21:57:55.304Z,6.72
2023-02-11T22:01:00.801Z,6.18
2023-02-11T22:04:06.411Z,6.00
2023-02-11T22:07:10.924Z,6.10
2023-02-11T22:10:15.475Z,7.07
2023-02-11T22:13:20.860Z,6.47
2023-02-11T22:16:27.019Z,5.85
2023-02-11T22:19:34.907Z,7.00
2023-02-11T22:22:39.906Z,6.43
2023-02-11T22:25:44.820Z,6.60
2023-02-11T22:28:51.150Z,6.63
2023-02-11T22:31:55.970Z,7.32
2023-02-11T22:35:00.757Z,6.70
2023-02-11T22:38:05.483Z,7.45
2023-02-11T22:41:11.602Z,6.47
2023-02-11T22:44:17.322Z,7.75
2023-02-11T22:47:22.328Z,6.82
2023-02-11T22:50:27.527Z,7.15
2023-02-11T22:53:32.215Z,7.20
2023-02-11T22:56:36.877Z,7.10
2023-02-11T22:59:41.449Z,7.13
2023-02-11T23:02:46.140Z,6.50
2023-02-11T23:05:51.153Z,7.65
2023-02-11T23:08:55.944Z,7.38
2023-02-11T23:12:00.555Z,7.28
2023-02-11T23:15:05.412Z,7.45
2023-02-11T23:18:11.383Z,7.18
2023-02-11T23:21:25.184Z,8.68
2023-02-11T23:24:29.699Z,7.78
2023-02-11T23:27:34.369Z,8.43
2023-02-11T23:30:39.678Z,8.15
2023-02-11T23:33:45.857Z,8.00
2023-02-11T23:36:52.034Z,7.57
2023-02-11T23:39:56.807Z,7.85
2023-02-11T23:43:01.487Z,7.55
2023-02-11T23:46:06.822Z,8.10
2023-02-11T23:49:11.772Z,8.10
2023-02-11T23:52:16.378Z,8.07
2023-02-11T23:55:21.185Z,7.75
2023-02-11T23:58:26.029Z,8.15
